Observation data for Fluvanna on 07/03/2020      Previous  Date  Next       Current Mesonet Observations  Soil Data  Daily Summary Page  Observations in Plain Language
KFVS 030500Z 14010KT 29/15 A3003 RMK A01 T02860145  RH  044%=      5-min Rain = 0
KFVS 030505Z 14009KT 29/15 A3004 RMK A01 T02850145  RH  044%=      5-min Rain = 0
KFVS 030510Z 14010KT 29/15 A3004 RMK A01 T02850145  RH  044%=      5-min Rain = 0
KFVS 030515Z 14011KT 29/14 A3003 RMK A01 T02860144  RH  044%=      5-min Rain = 0
KFVS 030520Z 14012G17KT 29/15 A3003 RMK A01 T02860145  RH  044%=      5-min Rain = 0
KFVS 030525Z 15011KT 29/15 A3003 RMK A01 T02860145  RH  044%=      5-min Rain = 0
KFVS 030530Z 15011KT 28/15 A3003 RMK A01 T02830145  RH  045%=      5-min Rain = 0
KFVS 030535Z 15010KT 28/15 A3003 RMK A01 T02820145  RH  045%=      5-min Rain = 0
KFVS 030540Z 15011KT 28/15 A3003 RMK A01 T02820145  RH  045%=      5-min Rain = 0
KFVS 030545Z 15010KT 28/15 A3003 RMK A01 T02820145  RH  045%=      5-min Rain = 0
KFVS 030550Z 15010KT 28/15 A3003 RMK A01 T02800146  RH  046%=      5-min Rain = 0
KFVS 030555Z 15010KT 28/15 A3003 RMK A01 T02800145  RH  046%=      5-min Rain = 0
KFVS 030600Z 15010KT 28/15 A3004 RMK A01 T02780145  RH  046%=      5-min Rain = 0
KFVS 030605Z 15010KT 28/15 A3003 RMK A01 T02770145  RH  046%=      5-min Rain = 0
KFVS 030610Z 15010KT 28/15 A3004 RMK A01 T02770145  RH  046%=      5-min Rain = 0
KFVS 030615Z 15009KT 28/14 A3003 RMK A01 T02770144  RH  046%=      5-min Rain = 0
KFVS 030620Z 16009KT 28/14 A3003 RMK A01 T02750144  RH  046%=      5-min Rain = 0
KFVS 030625Z 16008KT 27/14 A3003 RMK A01 T02740144  RH  047%=      5-min Rain = 0
KFVS 030630Z 16007KT 27/14 A3003 RMK A01 T02720143  RH  047%=      5-min Rain = 0
KFVS 030635Z 16008KT 27/14 A3003 RMK A01 T02710143  RH  047%=      5-min Rain = 0
KFVS 030640Z 16008KT 27/14 A3003 RMK A01 T02710142  RH  047%=      5-min Rain = 0
KFVS 030645Z 16008KT 27/14 A3002 RMK A01 T02690142  RH  047%=      5-min Rain = 0
KFVS 030650Z 16008KT 27/14 A3002 RMK A01 T02680141  RH  048%=      5-min Rain = 0
KFVS 030655Z 16008KT 27/14 A3002 RMK A01 T02680139  RH  047%=      5-min Rain = 0
KFVS 030700Z 16008KT 27/14 A3002 RMK A01 T02670140  RH  047%=      5-min Rain = 0
KFVS 030705Z 17008KT 27/14 A3002 RMK A01 T02670139  RH  047%=      5-min Rain = 0
KFVS 030710Z 17008KT 27/14 A3002 RMK A01 T02660139  RH  047%=      5-min Rain = 0
KFVS 030715Z 16009KT 27/14 A3001 RMK A01 T02680138  RH  047%=      5-min Rain = 0
KFVS 030720Z 17009KT 27/14 A3001 RMK A01 T02670138  RH  047%=      5-min Rain = 0
KFVS 030725Z 18010KT 27/14 A3001 RMK A01 T02680138  RH  047%=      5-min Rain = 0
KFVS 030730Z 19010KT 27/14 A30 RMK A01 T02680140  RH  047%=      5-min Rain = 0
KFVS 030735Z 18010KT 26/14 A30 RMK A01 T02630143  RH  050%=      5-min Rain = 0
KFVS 030740Z 17009KT 26/15 A30 RMK A01 T02600145  RH  051%=      5-min Rain = 0
KFVS 030745Z 17008KT 26/15 A3001 RMK A01 T02590145  RH  052%=      5-min Rain = 0
KFVS 030750Z 19009KT 26/15 A30 RMK A01 T02580145  RH  052%=      5-min Rain = 0
KFVS 030755Z 18010KT 26/14 A30 RMK A01 T02590144  RH  051%=      5-min Rain = 0
KFVS 030800Z 18009KT 26/15 A30 RMK A01 T02570145  RH  052%=      5-min Rain = 0
KFVS 030805Z 17007KT 26/15 A30 RMK A01 T02550146  RH  053%=      5-min Rain = 0
KFVS 030810Z 18008KT 25/15 A30 RMK A01 T02540146  RH  054%=      5-min Rain = 0
KFVS 030815Z 19009KT 26/15 A30 RMK A01 T02550145  RH  053%=      5-min Rain = 0
KFVS 030820Z 18008KT 26/14 A30 RMK A01 T02550144  RH  053%=      5-min Rain = 0
KFVS 030825Z 18007KT 25/14 A30 RMK A01 T02530144  RH  053%=      5-min Rain = 0
KFVS 030830Z 18007KT 25/15 A30 RMK A01 T02520145  RH  054%=      5-min Rain = 0
KFVS 030835Z 18008KT 25/15 A30 RMK A01 T02510146  RH  054%=      5-min Rain = 0
KFVS 030840Z 17007KT 25/15 A3001 RMK A01 T02510145  RH  054%=      5-min Rain = 0
KFVS 030845Z 17007KT 25/15 A3001 RMK A01 T02500146  RH  055%=      5-min Rain = 0
KFVS 030850Z 16007KT 25/15 A3001 RMK A01 T02490145  RH  055%=      5-min Rain = 0
KFVS 030855Z 16006KT 24/15 A3002 RMK A01 T02440146  RH  057%=      5-min Rain = 0
KFVS 030900Z 17006KT 24/15 A3002 RMK A01 T02410145  RH  057%=      5-min Rain = 0
KFVS 030905Z 17007KT 24/15 A3001 RMK A01 T02420145  RH  057%=      5-min Rain = 0
KFVS 030910Z 17009KT 25/14 A3001 RMK A01 T02470143  RH  055%=      5-min Rain = 0
KFVS 030915Z 18009KT 25/14 A3001 RMK A01 T02530142  RH  053%=      5-min Rain = 0
KFVS 030920Z 18008KT 25/14 A3001 RMK A01 T02520143  RH  053%=      5-min Rain = 0
KFVS 030925Z 18008KT 25/14 A3001 RMK A01 T02530143  RH  053%=      5-min Rain = 0
KFVS 030930Z 17009KT 25/15 A3002 RMK A01 T02510145  RH  054%=      5-min Rain = 0
KFVS 030935Z 17009KT 25/15 A3002 RMK A01 T02510146  RH  054%=      5-min Rain = 0
KFVS 030940Z 17010KT 25/15 A3002 RMK A01 T02520146  RH  054%=      5-min Rain = 0
KFVS 030945Z 17009KT 25/15 A3002 RMK A01 T02530146  RH  054%=      5-min Rain = 0
KFVS 030950Z 16008KT 25/15 A3002 RMK A01 T02520145  RH  054%=      5-min Rain = 0
KFVS 030955Z 15008KT 25/15 A3003 RMK A01 T02490145  RH  055%=      5-min Rain = 0
KFVS 031000Z 15008KT 24/15 A3003 RMK A01 T02430146  RH  057%=      5-min Rain = 0
KFVS 031005Z 16008KT 24/15 A3003 RMK A01 T02420147  RH  058%=      5-min Rain = 0
KFVS 031010Z 17008KT 25/15 A3003 RMK A01 T02450147  RH  057%=      5-min Rain = 0
KFVS 031015Z 17009KT 25/15 A3003 RMK A01 T02490147  RH  056%=      5-min Rain = 0
KFVS 031020Z 17011KT 25/15 A3003 RMK A01 T02490148  RH  056%=      5-min Rain = 0
KFVS 031025Z 17012KT 25/15 A3003 RMK A01 T02500148  RH  056%=      5-min Rain = 0
KFVS 031030Z 17011KT 25/15 A3003 RMK A01 T02500149  RH  056%=      5-min Rain = 0
KFVS 031035Z 17011KT 25/15 A3003 RMK A01 T02490148  RH  056%=      5-min Rain = 0
KFVS 031040Z 17010KT 25/15 A3003 RMK A01 T02480148  RH  056%=      5-min Rain = 0
KFVS 031045Z 17010G16KT 25/15 A3003 RMK A01 T02450148  RH  057%=      5-min Rain = 0
KFVS 031050Z 17011KT 25/15 A3003 RMK A01 T02450149  RH  057%=      5-min Rain = 0
KFVS 031055Z 17010KT 24/15 A3004 RMK A01 T02440149  RH  058%=      5-min Rain = 0
KFVS 031100Z 17009KT 24/15 A3004 RMK A01 T02420150  RH  059%=      5-min Rain = 0
KFVS 031105Z 17009KT 24/15 A3004 RMK A01 T02420150  RH  059%=      5-min Rain = 0
KFVS 031110Z 17009G14KT 24/15 A3004 RMK A01 T02410152  RH  060%=      5-min Rain = 0
KFVS 031115Z 17009KT 24/15 A3004 RMK A01 T02410153  RH  060%=      5-min Rain = 0
KFVS 031120Z 18009KT 24/15 A3004 RMK A01 T02410153  RH  061%=      5-min Rain = 0
KFVS 031125Z 18008KT 24/15 A3004 RMK A01 T02390153  RH  061%=      5-min Rain = 0
KFVS 031130Z 17009KT 24/15 A3005 RMK A01 T02370154  RH  062%=      5-min Rain = 0
KFVS 031135Z 17009KT 24/15 A3005 RMK A01 T02390154  RH  062%=      5-min Rain = 0
KFVS 031140Z 17008KT 24/16 A3005 RMK A01 T02380155  RH  063%=      5-min Rain = 0
KFVS 031145Z 17008KT 24/16 A3005 RMK A01 T02380155  RH  063%=      5-min Rain = 0
KFVS 031150Z 17009KT 24/16 A3005 RMK A01 T02370156  RH  063%=      5-min Rain = 0
KFVS 031155Z 17009KT 24/16 A3005 RMK A01 T02360156  RH  064%=      5-min Rain = 0
KFVS 031200Z 17010KT 24/16 A3005 RMK A01 T02380157  RH  063%=      5-min Rain = 0
KFVS 031205Z 17010KT 24/16 A3005 RMK A01 T02390158  RH  063%=      5-min Rain = 0
KFVS 031210Z 17010KT 24/16 A3006 RMK A01 T02370158  RH  064%=      5-min Rain = 0
KFVS 031215Z 17010KT 24/16 A3006 RMK A01 T02370159  RH  064%=      5-min Rain = 0
KFVS 031220Z 17009KT 24/16 A3006 RMK A01 T02380160  RH  065%=      5-min Rain = 0
KFVS 031225Z 18009KT 24/16 A3006 RMK A01 T02380160  RH  065%=      5-min Rain = 0
KFVS 031230Z 18008KT 24/16 A3007 RMK A01 T02380161  RH  065%=      5-min Rain = 0
KFVS 031235Z 17007KT 24/16 A3007 RMK A01 T02390162  RH  065%=      5-min Rain = 0
KFVS 031240Z 16007KT 24/16 A3007 RMK A01 T02390163  RH  066%=      5-min Rain = 0
KFVS 031245Z 16007KT 24/16 A3007 RMK A01 T02390164  RH  066%=      5-min Rain = 0
KFVS 031250Z 15006KT 24/17 A3007 RMK A01 T02390166  RH  067%=      5-min Rain = 0
KFVS 031255Z 16006KT 24/17 A3007 RMK A01 T02410167  RH  066%=      5-min Rain = 0
KFVS 031300Z 16006KT 24/17 A3007 RMK A01 T02440168  RH  066%=      5-min Rain = 0
KFVS 031305Z 16007KT 25/17 A3007 RMK A01 T02460169  RH  065%=      5-min Rain = 0
KFVS 031310Z 16007KT 25/17 A3007 RMK A01 T02500170  RH  064%=      5-min Rain = 0
KFVS 031315Z 17008KT 25/17 A3007 RMK A01 T02530170  RH  063%=      5-min Rain = 0
KFVS 031320Z 17008KT 25/17 A3008 RMK A01 T02540170  RH  063%=      5-min Rain = 0
KFVS 031325Z 17008KT 26/17 A3008 RMK A01 T02560171  RH  062%=      5-min Rain = 0
KFVS 031330Z 18008KT 26/17 A3008 RMK A01 T02590172  RH  062%=      5-min Rain = 0
KFVS 031335Z 18009KT 26/17 A3008 RMK A01 T02580172  RH  062%=      5-min Rain = 0
KFVS 031340Z 18008KT 26/17 A3008 RMK A01 T02590173  RH  062%=      5-min Rain = 0
KFVS 031345Z 18008KT 26/17 A3008 RMK A01 T02600174  RH  062%=      5-min Rain = 0
KFVS 031350Z 18009KT 26/18 A3008 RMK A01 T02620176  RH  062%=      5-min Rain = 0
KFVS 031355Z 18010KT 26/18 A3008 RMK A01 T02630177  RH  062%=      5-min Rain = 0
KFVS 031400Z 18010KT 26/18 A3008 RMK A01 T02640179  RH  063%=      5-min Rain = 0
KFVS 031405Z 18010KT 27/18 A3008 RMK A01 T02650179  RH  062%=      5-min Rain = 0
KFVS 031410Z 18010KT 27/18 A3008 RMK A01 T02670181  RH  063%=      5-min Rain = 0
KFVS 031415Z 18010KT 27/18 A3008 RMK A01 T02680181  RH  062%=      5-min Rain = 0
KFVS 031420Z 20011KT 27/18 A3008 RMK A01 T02670180  RH  062%=      5-min Rain = 0
KFVS 031425Z 18010KT 27/18 A3008 RMK A01 T02680180  RH  062%=      5-min Rain = 0
KFVS 031430Z 18010KT 27/18 A3008 RMK A01 T02690181  RH  062%=      5-min Rain = 0
KFVS 031435Z 20011KT 27/18 A3008 RMK A01 T02710182  RH  061%=      5-min Rain = 0
KFVS 031440Z 20010KT 27/18 A3008 RMK A01 T02740182  RH  061%=      5-min Rain = 0
KFVS 031445Z 19010KT 27/18 A3008 RMK A01 T02740182  RH  060%=      5-min Rain = 0
KFVS 031450Z 18010KT 28/18 A3008 RMK A01 T02750182  RH  060%=      5-min Rain = 0
KFVS 031455Z 17010KT 28/18 A3009 RMK A01 T02750183  RH  060%=      5-min Rain = 0
KFVS 031500Z 18010KT 28/18 A3009 RMK A01 T02780184  RH  060%=      5-min Rain = 0
KFVS 031505Z 19009KT 28/18 A3009 RMK A01 T02800184  RH  059%=      5-min Rain = 0
KFVS 031510Z 18009KT 28/19 A3009 RMK A01 T02810185  RH  059%=      5-min Rain = 0
KFVS 031515Z 17009KT 28/18 A3009 RMK A01 T02830184  RH  058%=      5-min Rain = 0
KFVS 031520Z 19007G12KT 28/18 A3009 RMK A01 T02840184  RH  058%=      5-min Rain = 0
KFVS 031525Z 19009KT 29/18 A3009 RMK A01 T02870184  RH  057%=      5-min Rain = 0
KFVS 031530Z 20008KT 29/18 A3009 RMK A01 T02860182  RH  056%=      5-min Rain = 0
KFVS 031535Z 19007KT 29/18 A3009 RMK A01 T02870182  RH  056%=      5-min Rain = 0
KFVS 031540Z 18007KT 29/18 A3009 RMK A01 T02880181  RH  055%=      5-min Rain = 0
KFVS 031545Z 18008KT 29/18 A3009 RMK A01 T02910181  RH  054%=      5-min Rain = 0
KFVS 031550Z 17009KT 30/18 A3009 RMK A01 T02950180  RH  053%=      5-min Rain = 0
KFVS 031555Z 20008KT 29/18 A3009 RMK A01 T02930180  RH  053%=      5-min Rain = 0
KFVS 031600Z 18008G14KT 30/18 A3009 RMK A01 T02960182  RH  053%=      5-min Rain = 0
KFVS 031605Z 15006G13KT 30/18 A3009 RMK A01 T02960183  RH  053%=      5-min Rain = 0
KFVS 031610Z 17009KT 30/18 A3009 RMK A01 T03020180  RH  051%=      5-min Rain = 0
KFVS 031615Z 18008KT 30/18 A3009 RMK A01 T03010180  RH  051%=      5-min Rain = 0
KFVS 031620Z 16007G13KT 30/18 A3009 RMK A01 T03020179  RH  050%=      5-min Rain = 0
KFVS 031625Z 17007KT 30/18 A3009 RMK A01 T03030178  RH  050%=      5-min Rain = 0
KFVS 031630Z 19007KT 31/18 A3009 RMK A01 T03070180  RH  049%=      5-min Rain = 0
KFVS 031635Z 15010KT 31/18 A3009 RMK A01 T03070177  RH  048%=      5-min Rain = 0
KFVS 031640Z 17008KT 31/17 A3009 RMK A01 T03090174  RH  047%=      5-min Rain = 0
KFVS 031645Z 16008KT 31/17 A3009 RMK A01 T03110171  RH  045%=      5-min Rain = 0
KFVS 031650Z 15009KT 31/18 A3009 RMK A01 T03110175  RH  046%=      5-min Rain = 0
KFVS 031655Z 15008KT 31/17 A3009 RMK A01 T03100171  RH  046%=      5-min Rain = 0
KFVS 031700Z 17009G14KT 32/17 A3009 RMK A01 T03160170  RH  044%=      5-min Rain = 0
KFVS 031705Z 17008G13KT 32/17 A3009 RMK A01 T03160167  RH  043%=      5-min Rain = 0
KFVS 031710Z 17008KT 32/17 A3009 RMK A01 T03220167  RH  042%=      5-min Rain = 0
KFVS 031715Z 15009KT 32/17 A3009 RMK A01 T03210165  RH  041%=      5-min Rain = 0
KFVS 031720Z 14009G14KT 32/17 A3009 RMK A01 T03210166  RH  041%=      5-min Rain = 0
KFVS 031725Z 15009KT 32/16 A3009 RMK A01 T03230161  RH  040%=      5-min Rain = 0
KFVS 031730Z 16009G15KT 33/16 A3008 RMK A01 T03250155  RH  038%=      5-min Rain = 0
KFVS 031735Z 15010KT 33/15 A3008 RMK A01 T03270147  RH  035%=      5-min Rain = 0
KFVS 031740Z 17009G14KT 33/15 A3008 RMK A01 T03290154  RH  036%=      5-min Rain = 0
KFVS 031745Z 16010KT 33/15 A3008 RMK A01 T03310145  RH  034%=      5-min Rain = 0
KFVS 031750Z 16010G21KT 34/14 A3008 RMK A01 T03350140  RH  032%=      5-min Rain = 0
KFVS 031755Z 16009G14KT 33/14 A3008 RMK A01 T03310140  RH  033%=      5-min Rain = 0
KFVS 031800Z 17010G16KT 34/14 A3008 RMK A01 T03360142  RH  032%=      5-min Rain = 0
KFVS 031805Z 17008G13KT 33/14 A3007 RMK A01 T03340142  RH  033%=      5-min Rain = 0
KFVS 031810Z 16009KT 34/13 A3007 RMK A01 T03390128  RH  029%=      5-min Rain = 0
KFVS 031815Z 14008KT 34/13 A3007 RMK A01 T03380132  RH  030%=      5-min Rain = 0
KFVS 031820Z 17007KT 34/13 A3007 RMK A01 T03390130  RH  029%=      5-min Rain = 0
KFVS 031825Z 14010G16KT 34/13 A3007 RMK A01 T03420132  RH  029%=      5-min Rain = 0
KFVS 031830Z 16010G15KT 34/13 A3007 RMK A01 T03390130  RH  030%=      5-min Rain = 0
KFVS 031835Z 16006KT 34/14 A3007 RMK A01 T03360140  RH  032%=      5-min Rain = 0
KFVS 031840Z 11005KT 34/14 A3007 RMK A01 T03350136  RH  031%=      5-min Rain = 0
KFVS 031845Z 16010KT 34/13 A3006 RMK A01 T03390133  RH  030%=      5-min Rain = 0
KFVS 031850Z 17006KT 34/13 A3006 RMK A01 T03400130  RH  029%=      5-min Rain = 0
KFVS 031855Z 14010G16KT 34/14 A3006 RMK A01 T03410136  RH  030%=      5-min Rain = 0
KFVS 031900Z 14011G18KT 34/14 A3006 RMK A01 T03430137  RH  030%=      5-min Rain = 0
KFVS 031905Z 15005G14KT 34/13 A3006 RMK A01 T03380134  RH  030%=      5-min Rain = 0
KFVS 031910Z 15011G16KT 35/13 A3006 RMK A01 T03470134  RH  029%=      5-min Rain = 0
KFVS 031915Z 13007G12KT 34/13 A3006 RMK A01 T03430128  RH  028%=      5-min Rain = 0
KFVS 031920Z 14008G13KT 34/13 A3005 RMK A01 T03440132  RH  029%=      5-min Rain = 0
KFVS 031925Z 13009G14KT 35/13 A3005 RMK A01 T03470129  RH  028%=      5-min Rain = 0
KFVS 031930Z 12006KT 35/13 A3005 RMK A01 T03450125  RH  028%=      5-min Rain = 0
KFVS 031935Z 12005G13KT 35/13 A3005 RMK A01 T03460127  RH  028%=      5-min Rain = 0
KFVS 031940Z 12009G15KT 35/13 A3004 RMK A01 T03460126  RH  027%=      5-min Rain = 0
KFVS 031945Z 16011G18KT 35/12 A3004 RMK A01 T03510121  RH  026%=      5-min Rain = 0
KFVS 031950Z 18011KT 36/11 A3004 RMK A01 T03550114  RH  024%=      5-min Rain = 0
KFVS 031955Z 17007G13KT 35/11 A3004 RMK A01 T03540112  RH  024%=      5-min Rain = 0
KFVS 032000Z 16011G19KT 35/12 A3004 RMK A01 T03540118  RH  025%=      5-min Rain = 0
KFVS 032005Z 17012KT 36/12 A3004 RMK A01 T03560118  RH  025%=      5-min Rain = 0
KFVS 032010Z 16008KT 35/12 A3004 RMK A01 T03520117  RH  025%=      5-min Rain = 0
KFVS 032015Z 19008KT 35/12 A3003 RMK A01 T03530115  RH  025%=      5-min Rain = 0
KFVS 032020Z 18008G14KT 35/12 A3003 RMK A01 T03510115  RH  025%=      5-min Rain = 0
KFVS 032025Z 18009G14KT 36/12 A3003 RMK A01 T03560117  RH  025%=      5-min Rain = 0
KFVS 032030Z 13011G16KT 36/12 A3003 RMK A01 T03560119  RH  025%=      5-min Rain = 0
KFVS 032035Z 13008G14KT 35/12 A3003 RMK A01 T03530117  RH  025%=      5-min Rain = 0
KFVS 032040Z 14010KT 36/11 A3003 RMK A01 T03550113  RH  024%=      5-min Rain = 0
KFVS 032045Z 14007G12KT 36/11 A3003 RMK A01 T03550106  RH  023%=      5-min Rain = 0
KFVS 032050Z 13008G13KT 35/11 A3002 RMK A01 T03520109  RH  024%=      5-min Rain = 0
KFVS 032055Z 15007G13KT 35/11 A3002 RMK A01 T03520111  RH  024%=      5-min Rain = 0
KFVS 032100Z 16010G15KT 36/11 A3002 RMK A01 T03630112  RH  023%=      5-min Rain = 0
KFVS 032105Z 16010G15KT 36/11 A3002 RMK A01 T03620106  RH  022%=      5-min Rain = 0
KFVS 032110Z 16010G16KT 36/11 A3002 RMK A01 T03600109  RH  023%=      5-min Rain = 0
KFVS 032115Z 16007KT 36/11 A3002 RMK A01 T03570110  RH  023%=      5-min Rain = 0
KFVS 032120Z 15009G14KT 36/11 A3001 RMK A01 T03570111  RH  023%=      5-min Rain = 0
KFVS 032125Z 16009G14KT 36/11 A3001 RMK A01 T03610109  RH  023%=      5-min Rain = 0
KFVS 032130Z 14011G16KT 36/11 A3001 RMK A01 T03580110  RH  023%=      5-min Rain = 0
KFVS 032135Z 16009KT 36/11 A3001 RMK A01 T03560109  RH  023%=      5-min Rain = 0
KFVS 032140Z 15004KT 36/11 A3001 RMK A01 T03550108  RH  023%=      5-min Rain = 0
KFVS 032145Z 12005G10KT 35/11 A3001 RMK A01 T03540111  RH  024%=      5-min Rain = 0
KFVS 032150Z 16010G17KT 36/11 A30 RMK A01 T03600111  RH  023%=      5-min Rain = 0
KFVS 032155Z 17009KT 36/11 A30 RMK A01 T03630110  RH  022%=      5-min Rain = 0
KFVS 032200Z 16005G13KT 36/11 A30 RMK A01 T03570108  RH  023%=      5-min Rain = 0
KFVS 032205Z 14010G16KT 36/11 A30 RMK A01 T03590111  RH  023%=      5-min Rain = 0
KFVS 032210Z 16010G16KT 36/11 A30 RMK A01 T03590111  RH  023%=      5-min Rain = 0
KFVS 032215Z 16006G14KT 36/11 A2999 RMK A01 T03590110  RH  023%=      5-min Rain = 0
KFVS 032220Z 17011KT 36/11 A2999 RMK A01 T03630110  RH  022%=      5-min Rain = 0
KFVS 032225Z 15010KT 36/11 A2999 RMK A01 T03630111  RH  023%=      5-min Rain = 0
KFVS 032230Z 15008KT 36/11 A2999 RMK A01 T03630109  RH  022%=      5-min Rain = 0
KFVS 032235Z 13006KT 36/11 A2999 RMK A01 T03570105  RH  022%=      5-min Rain = 0
KFVS 032240Z 17003KT 36/10 A2999 RMK A01 T03580104  RH  022%=      5-min Rain = 0
KFVS 032245Z 15009G14KT 36/11 A2999 RMK A01 T03600108  RH  022%=      5-min Rain = 0
KFVS 032250Z 15008G14KT 36/11 A2999 RMK A01 T03590107  RH  023%=      5-min Rain = 0
KFVS 032255Z 17005KT 36/11 A2999 RMK A01 T03590108  RH  023%=      5-min Rain = 0
KFVS 032300Z 17003KT 36/11 A2999 RMK A01 T03600107  RH  022%=      5-min Rain = 0
KFVS 032305Z 16005G10KT 36/11 A2998 RMK A01 T03610108  RH  022%=      5-min Rain = 0
KFVS 032310Z 16007G14KT 37/10 A2998 RMK A01 T03650103  RH  021%=      5-min Rain = 0
KFVS 032315Z 16009G20KT 36/10 A2998 RMK A01 T03620104  RH  022%=      5-min Rain = 0
KFVS 032320Z 17009KT 36/11 A2998 RMK A01 T03630107  RH  022%=      5-min Rain = 0
KFVS 032325Z 16010KT 36/11 A2998 RMK A01 T03620112  RH  023%=      5-min Rain = 0
KFVS 032330Z 15010G15KT 36/11 A2998 RMK A01 T03600113  RH  023%=      5-min Rain = 0
KFVS 032335Z 15008KT 36/11 A2998 RMK A01 T03590111  RH  023%=      5-min Rain = 0
KFVS 032340Z 18006G11KT 36/11 A2998 RMK A01 T03590110  RH  023%=      5-min Rain = 0
KFVS 032345Z 15009KT 36/11 A2998 RMK A01 T03580114  RH  024%=      5-min Rain = 0
KFVS 032350Z 16008KT 36/12 A2998 RMK A01 T03580115  RH  024%=      5-min Rain = 0
KFVS 032355Z 17007KT 36/11 A2997 RMK A01 T03560113  RH  024%=      5-min Rain = 0
KFVS 040000Z 12007KT 35/12 A2997 RMK A01 T03530117  RH  025%=      5-min Rain = 0
KFVS 040005Z 12008KT 35/12 A2998 RMK A01 T03480119  RH  026%=      5-min Rain = 0
KFVS 040010Z 16007KT 35/11 A2997 RMK A01 T03490111  RH  024%=      5-min Rain = 0
KFVS 040015Z 16007KT 35/11 A2998 RMK A01 T03490109  RH  024%=      5-min Rain = 0
KFVS 040020Z 18005KT 35/11 A2998 RMK A01 T03510112  RH  024%=      5-min Rain = 0
KFVS 040025Z 16006KT 35/11 A2998 RMK A01 T03520113  RH  025%=      5-min Rain = 0
KFVS 040030Z 11007KT 35/12 A2998 RMK A01 T03470121  RH  026%=      5-min Rain = 0
KFVS 040035Z 13011KT 34/12 A2998 RMK A01 T03440117  RH  026%=      5-min Rain = 0
KFVS 040040Z 12009KT 34/12 A2998 RMK A01 T03430115  RH  026%=      5-min Rain = 0
KFVS 040045Z 12007KT 34/12 A2998 RMK A01 T03420116  RH  026%=      5-min Rain = 0
KFVS 040050Z 11008KT 34/12 A2999 RMK A01 T03390121  RH  028%=      5-min Rain = 0
KFVS 040055Z 11008KT 34/13 A2999 RMK A01 T03370128  RH  029%=      5-min Rain = 0
KFVS 040100Z 11009KT 34/13 A2999 RMK A01 T03360131  RH  030%=      5-min Rain = 0
KFVS 040105Z 11009KT 33/13 A2999 RMK A01 T03340131  RH  030%=      5-min Rain = 0
KFVS 040110Z 10010G15KT 33/13 A2999 RMK A01 T03320130  RH  031%=      5-min Rain = 0
KFVS 040115Z 10010KT 33/13 A2999 RMK A01 T03300129  RH  031%=      5-min Rain = 0
KFVS 040120Z 10010KT 33/13 A2999 RMK A01 T03290129  RH  031%=      5-min Rain = 0
KFVS 040125Z 10008KT 33/13 A2999 RMK A01 T03280130  RH  031%=      5-min Rain = 0
KFVS 040130Z 10008KT 33/13 A2999 RMK A01 T03260130  RH  032%=      5-min Rain = 0
KFVS 040135Z 10008KT 32/13 A2999 RMK A01 T03240129  RH  032%=      5-min Rain = 0
KFVS 040140Z 11008KT 32/13 A2999 RMK A01 T03230128  RH  032%=      5-min Rain = 0
KFVS 040145Z 11009KT 32/13 A2999 RMK A01 T03230128  RH  032%=      5-min Rain = 0
KFVS 040150Z 11008KT 32/13 A2999 RMK A01 T03210130  RH  033%=      5-min Rain = 0
KFVS 040155Z 12008KT 32/13 A2999 RMK A01 T03190130  RH  033%=      5-min Rain = 0
KFVS 040200Z 11008KT 32/13 A2999 RMK A01 T03180130  RH  033%=      5-min Rain = 0
KFVS 040205Z 11008KT 32/13 A2999 RMK A01 T03160130  RH  034%=      5-min Rain = 0
KFVS 040210Z 10008KT 31/13 A30 RMK A01 T03130130  RH  034%=      5-min Rain = 0
KFVS 040215Z 10007KT 31/13 A30 RMK A01 T03110130  RH  034%=      5-min Rain = 0
KFVS 040220Z 11006KT 31/13 A30 RMK A01 T03080130  RH  035%=      5-min Rain = 0
KFVS 040225Z 11006KT 30/13 A3001 RMK A01 T03040130  RH  036%=      5-min Rain = 0
KFVS 040230Z 11006KT 30/13 A3001 RMK A01 T03010129  RH  036%=      5-min Rain = 0
KFVS 040235Z 11006KT 30/13 A3001 RMK A01 T02990127  RH  036%=      5-min Rain = 0
KFVS 040240Z 11006KT 30/13 A3001 RMK A01 T02990125  RH  036%=      5-min Rain = 0
KFVS 040245Z 10006KT 30/13 A3002 RMK A01 T02960126  RH  037%=      5-min Rain = 0
KFVS 040250Z 10007KT 29/13 A3002 RMK A01 T02930126  RH  037%=      5-min Rain = 0
KFVS 040255Z 10007KT 29/12 A3002 RMK A01 T02920124  RH  037%=      5-min Rain = 0
KFVS 040300Z 10007KT 29/12 A3002 RMK A01 T02920123  RH  037%=      5-min Rain = 0
KFVS 040305Z 11008KT 29/12 A3002 RMK A01 T02920122  RH  036%=      5-min Rain = 0
KFVS 040310Z 11008KT 30/12 A3003 RMK A01 T02950120  RH  035%=      5-min Rain = 0
KFVS 040315Z 11008KT 30/12 A3003 RMK A01 T02950120  RH  035%=      5-min Rain = 0
KFVS 040320Z 11009KT 30/12 A3003 RMK A01 T02960120  RH  035%=      5-min Rain = 0
KFVS 040325Z 11008KT 29/12 A3003 RMK A01 T02930121  RH  036%=      5-min Rain = 0
KFVS 040330Z 11007KT 29/12 A3004 RMK A01 T02910121  RH  036%=      5-min Rain = 0
KFVS 040335Z 11007KT 29/12 A3004 RMK A01 T02890121  RH  037%=      5-min Rain = 0
KFVS 040340Z 11008KT 29/12 A3004 RMK A01 T02880121  RH  037%=      5-min Rain = 0
KFVS 040345Z 11008KT 29/12 A3004 RMK A01 T02880120  RH  037%=      5-min Rain = 0
KFVS 040350Z 11008KT 29/12 A3004 RMK A01 T02880120  RH  037%=      5-min Rain = 0
KFVS 040355Z 11008KT 29/12 A3004 RMK A01 T02870119  RH  037%=      5-min Rain = 0
KFVS 040400Z 11008KT 29/12 A3005 RMK A01 T02870118  RH  036%=      5-min Rain = 0
KFVS 040405Z 11008KT 29/12 A3005 RMK A01 T02860118  RH  037%=      5-min Rain = 0
KFVS 040410Z 11008KT 28/12 A3005 RMK A01 T02840118  RH  037%=      5-min Rain = 0
KFVS 040415Z 11007KT 28/12 A3005 RMK A01 T02830116  RH  037%=      5-min Rain = 0
KFVS 040420Z 12007KT 28/11 A3005 RMK A01 T02820114  RH  037%=      5-min Rain = 0
KFVS 040425Z 12006KT 28/11 A3005 RMK A01 T02800114  RH  037%=      5-min Rain = 0
KFVS 040430Z 12006KT 28/11 A3005 RMK A01 T02770113  RH  038%=      5-min Rain = 0
KFVS 040435Z 13006KT 27/11 A3005 RMK A01 T02730113  RH  038%=      5-min Rain = 0
KFVS 040440Z 13007KT 27/11 A3005 RMK A01 T02720111  RH  038%=      5-min Rain = 0
KFVS 040445Z 13006KT 27/11 A3005 RMK A01 T02720109  RH  037%=      5-min Rain = 0
KFVS 040450Z 12006KT 27/11 A3005 RMK A01 T02720107  RH  037%=      5-min Rain = 0
KFVS 040455Z 12006KT 27/11 A3005 RMK A01 T02690108  RH  038%=      5-min Rain = 0

Page generated in 0.0159 seconds.